sensor_id;sensor_type;location;lat;lon;timestamp;pressure;altitude;pressure_sealevel;temperature
15079;BMP180;6932;51.438;5.470;2023-02-28T00:00:35;102659.00;;;8.50
15079;BMP180;6932;51.438;5.470;2023-02-28T00:03:01;102654.00;;;8.50
15079;BMP180;6932;51.438;5.470;2023-02-28T00:05:28;102660.00;;;8.40
15079;BMP180;6932;51.438;5.470;2023-02-28T00:07:55;102663.00;;;8.40
15079;BMP180;6932;51.438;5.470;2023-02-28T00:10:26;102654.00;;;8.40
15079;BMP180;6932;51.438;5.470;2023-02-28T00:12:54;102658.00;;;8.40
15079;BMP180;6932;51.438;5.470;2023-02-28T00:15:23;102652.00;;;8.40
15079;BMP180;6932;51.438;5.470;2023-02-28T00:17:50;102659.00;;;8.30
15079;BMP180;6932;51.438;5.470;2023-02-28T00:20:16;102656.00;;;8.30
15079;BMP180;6932;51.438;5.470;2023-02-28T00:22:47;102666.00;;;8.30
15079;BMP180;6932;51.438;5.470;2023-02-28T00:25:20;102660.00;;;8.30
15079;BMP180;6932;51.438;5.470;2023-02-28T00:27:47;102657.00;;;8.30
15079;BMP180;6932;51.438;5.470;2023-02-28T00:30:18;102651.00;;;8.30
15079;BMP180;6932;51.438;5.470;2023-02-28T00:32:44;102651.00;;;8.30
15079;BMP180;6932;51.438;5.470;2023-02-28T00:35:11;102661.00;;;8.20
15079;BMP180;6932;51.438;5.470;2023-02-28T00:37:38;102658.00;;;8.20
15079;BMP180;6932;51.438;5.470;2023-02-28T00:40:05;102655.00;;;8.20
15079;BMP180;6932;51.438;5.470;2023-02-28T00:42:33;102651.00;;;8.20
15079;BMP180;6932;51.438;5.470;2023-02-28T00:44:58;102661.00;;;8.20
15079;BMP180;6932;51.438;5.470;2023-02-28T00:47:24;102660.00;;;8.20
15079;BMP180;6932;51.438;5.470;2023-02-28T00:49:50;102668.00;;;8.20
15079;BMP180;6932;51.438;5.470;2023-02-28T00:52:16;102664.00;;;8.20
15079;BMP180;6932;51.438;5.470;2023-02-28T00:54:41;102656.00;;;8.10
15079;BMP180;6932;51.438;5.470;2023-02-28T00:57:07;102663.00;;;8.10
15079;BMP180;6932;51.438;5.470;2023-02-28T00:59:33;102660.00;;;8.10
15079;BMP180;6932;51.438;5.470;2023-02-28T01:01:59;102662.00;;;8.10
15079;BMP180;6932;51.438;5.470;2023-02-28T01:04:24;102665.00;;;8.10
15079;BMP180;6932;51.438;5.470;2023-02-28T01:06:50;102668.00;;;8.10
15079;BMP180;6932;51.438;5.470;2023-02-28T01:09:16;102674.00;;;8.10
15079;BMP180;6932;51.438;5.470;2023-02-28T01:11:42;102679.00;;;8.10
15079;BMP180;6932;51.438;5.470;2023-02-28T01:14:16;102681.00;;;8.10
15079;BMP180;6932;51.438;5.470;2023-02-28T01:16:42;102672.00;;;8.10
15079;BMP180;6932;51.438;5.470;2023-02-28T01:19:08;102677.00;;;8.00
15079;BMP180;6932;51.438;5.470;2023-02-28T01:21:34;102679.00;;;8.00
15079;BMP180;6932;51.438;5.470;2023-02-28T01:24:04;102683.00;;;8.00
15079;BMP180;6932;51.438;5.470;2023-02-28T01:26:32;102683.00;;;8.00
15079;BMP180;6932;51.438;5.470;2023-02-28T01:28:58;102675.00;;;8.00
15079;BMP180;6932;51.438;5.470;2023-02-28T01:31:24;102677.00;;;8.00
15079;BMP180;6932;51.438;5.470;2023-02-28T01:33:50;102682.00;;;8.00
15079;BMP180;6932;51.438;5.470;2023-02-28T01:36:22;102678.00;;;8.00
15079;BMP180;6932;51.438;5.470;2023-02-28T01:38:49;102669.00;;;8.00
15079;BMP180;6932;51.438;5.470;2023-02-28T01:41:21;102668.00;;;7.90
15079;BMP180;6932;51.438;5.470;2023-02-28T01:46:13;102674.00;;;7.90
15079;BMP180;6932;51.438;5.470;2023-02-28T01:48:51;102667.00;;;7.90
15079;BMP180;6932;51.438;5.470;2023-02-28T01:51:40;102664.00;;;7.90
15079;BMP180;6932;51.438;5.470;2023-02-28T01:54:18;102669.00;;;7.90
15079;BMP180;6932;51.438;5.470;2023-02-28T01:56:58;102664.00;;;7.90
15079;BMP180;6932;51.438;5.470;2023-02-28T01:59:35;102647.00;;;7.90
15079;BMP180;6932;51.438;5.470;2023-02-28T02:02:03;102650.00;;;7.90
15079;BMP180;6932;51.438;5.470;2023-02-28T02:04:40;102646.00;;;7.90
15079;BMP180;6932;51.438;5.470;2023-02-28T02:07:07;102647.00;;;7.80
15079;BMP180;6932;51.438;5.470;2023-02-28T02:09:34;102642.00;;;7.80
15079;BMP180;6932;51.438;5.470;2023-02-28T02:12:38;102644.00;;;7.80
15079;BMP180;6932;51.438;5.470;2023-02-28T02:15:23;102644.00;;;7.80
15079;BMP180;6932;51.438;5.470;2023-02-28T02:17:56;102644.00;;;7.80
15079;BMP180;6932;51.438;5.470;2023-02-28T02:35:11;102625.00;;;7.80
15079;BMP180;6932;51.438;5.470;2023-02-28T02:37:52;102617.00;;;7.80
15079;BMP180;6932;51.438;5.470;2023-02-28T02:40:27;102620.00;;;7.80
15079;BMP180;6932;51.438;5.470;2023-02-28T02:43:02;102618.00;;;7.80
15079;BMP180;6932;51.438;5.470;2023-02-28T02:45:49;102628.00;;;7.80
15079;BMP180;6932;51.438;5.470;2023-02-28T02:48:22;102628.00;;;7.80
15079;BMP180;6932;51.438;5.470;2023-02-28T02:50:56;102633.00;;;7.80
15079;BMP180;6932;51.438;5.470;2023-02-28T02:53:30;102624.00;;;7.80
15079;BMP180;6932;51.438;5.470;2023-02-28T02:56:00;102632.00;;;7.80
15079;BMP180;6932;51.438;5.470;2023-02-28T02:58:33;102632.00;;;7.80
15079;BMP180;6932;51.438;5.470;2023-02-28T03:01:03;102629.00;;;7.70
15079;BMP180;6932;51.438;5.470;2023-02-28T03:03:32;102638.00;;;7.70
15079;BMP180;6932;51.438;5.470;2023-02-28T03:06:00;102639.00;;;7.70
15079;BMP180;6932;51.438;5.470;2023-02-28T03:08:29;102630.00;;;7.70
15079;BMP180;6932;51.438;5.470;2023-02-28T03:11:03;102639.00;;;7.70
15079;BMP180;6932;51.438;5.470;2023-02-28T03:14:14;102638.00;;;7.70
15079;BMP180;6932;51.438;5.470;2023-02-28T03:17:27;102627.00;;;7.60
15079;BMP180;6932;51.438;5.470;2023-02-28T03:28:23;102630.00;;;7.60
15079;BMP180;6932;51.438;5.470;2023-02-28T03:33:51;102623.00;;;7.60
15079;BMP180;6932;51.438;5.470;2023-02-28T03:36:30;102628.00;;;7.60
15079;BMP180;6932;51.438;5.470;2023-02-28T03:39:14;102629.00;;;7.60
15079;BMP180;6932;51.438;5.470;2023-02-28T03:42:15;102627.00;;;7.60
15079;BMP180;6932;51.438;5.470;2023-02-28T03:44:49;102621.00;;;7.60
15079;BMP180;6932;51.438;5.470;2023-02-28T03:47:32;102632.00;;;7.60
15079;BMP180;6932;51.438;5.470;2023-02-28T03:50:18;102632.00;;;7.50
15079;BMP180;6932;51.438;5.470;2023-02-28T03:53:01;102623.00;;;7.60
15079;BMP180;6932;51.438;5.470;2023-02-28T03:55:37;102628.00;;;7.60
15079;BMP180;6932;51.438;5.470;2023-02-28T04:00:47;102629.00;;;7.60
15079;BMP180;6932;51.438;5.470;2023-02-28T04:03:14;102628.00;;;7.60
15079;BMP180;6932;51.438;5.470;2023-02-28T04:06:08;102631.00;;;7.60
15079;BMP180;6932;51.438;5.470;2023-02-28T04:08:38;102619.00;;;7.60
15079;BMP180;6932;51.438;5.470;2023-02-28T04:11:16;102633.00;;;7.60
15079;BMP180;6932;51.438;5.470;2023-02-28T04:13:44;102629.00;;;7.60
15079;BMP180;6932;51.438;5.470;2023-02-28T04:16:36;102627.00;;;7.60
15079;BMP180;6932;51.438;5.470;2023-02-28T04:19:04;102632.00;;;7.60
15079;BMP180;6932;51.438;5.470;2023-02-28T04:21:34;102630.00;;;7.60
15079;BMP180;6932;51.438;5.470;2023-02-28T04:24:01;102635.00;;;7.60
15079;BMP180;6932;51.438;5.470;2023-02-28T04:26:34;102631.00;;;7.60
15079;BMP180;6932;51.438;5.470;2023-02-28T04:29:06;102635.00;;;7.60
15079;BMP180;6932;51.438;5.470;2023-02-28T04:31:33;102650.00;;;7.60
15079;BMP180;6932;51.438;5.470;2023-02-28T04:34:00;102642.00;;;7.60
15079;BMP180;6932;51.438;5.470;2023-02-28T04:36:26;102641.00;;;7.60
15079;BMP180;6932;51.438;5.470;2023-02-28T04:38:52;102645.00;;;7.70
15079;BMP180;6932;51.438;5.470;2023-02-28T04:41:19;102640.00;;;7.70
15079;BMP180;6932;51.438;5.470;2023-02-28T04:43:45;102650.00;;;7.70
15079;BMP180;6932;51.438;5.470;2023-02-28T04:46:11;102646.00;;;7.70
15079;BMP180;6932;51.438;5.470;2023-02-28T04:48:39;102642.00;;;7.70
15079;BMP180;6932;51.438;5.470;2023-02-28T04:51:11;102644.00;;;7.70
15079;BMP180;6932;51.438;5.470;2023-02-28T04:53:39;102647.00;;;7.70
15079;BMP180;6932;51.438;5.470;2023-02-28T04:56:07;102645.00;;;7.70
15079;BMP180;6932;51.438;5.470;2023-02-28T04:58:34;102640.00;;;7.70
15079;BMP180;6932;51.438;5.470;2023-02-28T05:01:24;102651.00;;;7.70
15079;BMP180;6932;51.438;5.470;2023-02-28T05:03:54;102646.00;;;7.70
15079;BMP180;6932;51.438;5.470;2023-02-28T05:06:25;102644.00;;;7.70
15079;BMP180;6932;51.438;5.470;2023-02-28T05:08:52;102643.00;;;7.70
15079;BMP180;6932;51.438;5.470;2023-02-28T05:11:26;102643.00;;;7.70
15079;BMP180;6932;51.438;5.470;2023-02-28T05:13:54;102641.00;;;7.70
15079;BMP180;6932;51.438;5.470;2023-02-28T05:16:21;102657.00;;;7.70
15079;BMP180;6932;51.438;5.470;2023-02-28T05:18:47;102652.00;;;7.70
15079;BMP180;6932;51.438;5.470;2023-02-28T05:21:31;102654.00;;;7.70
15079;BMP180;6932;51.438;5.470;2023-02-28T05:24:00;102658.00;;;7.70
15079;BMP180;6932;51.438;5.470;2023-02-28T05:26:27;102663.00;;;7.80
15079;BMP180;6932;51.438;5.470;2023-02-28T05:28:54;102660.00;;;7.80
15079;BMP180;6932;51.438;5.470;2023-02-28T05:31:20;102661.00;;;7.80
15079;BMP180;6932;51.438;5.470;2023-02-28T05:33:46;102651.00;;;7.80
15079;BMP180;6932;51.438;5.470;2023-02-28T05:36:12;102662.00;;;7.80
15079;BMP180;6932;51.438;5.470;2023-02-28T05:38:38;102666.00;;;7.80
15079;BMP180;6932;51.438;5.470;2023-02-28T05:41:11;102672.00;;;7.80
15079;BMP180;6932;51.438;5.470;2023-02-28T05:43:37;102661.00;;;7.80
15079;BMP180;6932;51.438;5.470;2023-02-28T05:46:05;102657.00;;;7.90
15079;BMP180;6932;51.438;5.470;2023-02-28T05:48:36;102669.00;;;7.90
15079;BMP180;6932;51.438;5.470;2023-02-28T05:51:03;102666.00;;;7.90
15079;BMP180;6932;51.438;5.470;2023-02-28T05:53:33;102666.00;;;7.90
15079;BMP180;6932;51.438;5.470;2023-02-28T05:55:59;102660.00;;;7.90
15079;BMP180;6932;51.438;5.470;2023-02-28T05:58:25;102663.00;;;7.90
15079;BMP180;6932;51.438;5.470;2023-02-28T06:00:55;102670.00;;;7.90
15079;BMP180;6932;51.438;5.470;2023-02-28T06:03:21;102656.00;;;7.90
15079;BMP180;6932;51.438;5.470;2023-02-28T06:05:46;102662.00;;;7.90
15079;BMP180;6932;51.438;5.470;2023-02-28T06:08:12;102660.00;;;7.90
15079;BMP180;6932;51.438;5.470;2023-02-28T06:10:38;102663.00;;;7.90
15079;BMP180;6932;51.438;5.470;2023-02-28T06:13:05;102656.00;;;7.90
15079;BMP180;6932;51.438;5.470;2023-02-28T06:15:32;102663.00;;;7.90
15079;BMP180;6932;51.438;5.470;2023-02-28T06:17:58;102676.00;;;7.90
15079;BMP180;6932;51.438;5.470;2023-02-28T06:20:27;102672.00;;;7.90
15079;BMP180;6932;51.438;5.470;2023-02-28T06:22:57;102669.00;;;7.90
15079;BMP180;6932;51.438;5.470;2023-02-28T06:25:27;102673.00;;;7.90
15079;BMP180;6932;51.438;5.470;2023-02-28T06:27:54;102674.00;;;7.90
15079;BMP180;6932;51.438;5.470;2023-02-28T06:30:20;102680.00;;;7.90
15079;BMP180;6932;51.438;5.470;2023-02-28T06:32:50;102685.00;;;7.90
15079;BMP180;6932;51.438;5.470;2023-02-28T06:35:17;102679.00;;;7.90
15079;BMP180;6932;51.438;5.470;2023-02-28T06:37:43;102680.00;;;7.90
15079;BMP180;6932;51.438;5.470;2023-02-28T06:40:11;102688.00;;;8.00
15079;BMP180;6932;51.438;5.470;2023-02-28T06:42:38;102687.00;;;8.00
15079;BMP180;6932;51.438;5.470;2023-02-28T06:45:04;102691.00;;;8.00
15079;BMP180;6932;51.438;5.470;2023-02-28T06:47:36;102689.00;;;8.00
15079;BMP180;6932;51.438;5.470;2023-02-28T06:50:03;102689.00;;;8.10
15079;BMP180;6932;51.438;5.470;2023-02-28T06:52:29;102689.00;;;8.10
15079;BMP180;6932;51.438;5.470;2023-02-28T06:54:55;102694.00;;;8.20
15079;BMP180;6932;51.438;5.470;2023-02-28T06:57:29;102690.00;;;8.30
15079;BMP180;6932;51.438;5.470;2023-02-28T07:00:00;102692.00;;;8.40
15079;BMP180;6932;51.438;5.470;2023-02-28T07:02:27;102698.00;;;8.50
15079;BMP180;6932;51.438;5.470;2023-02-28T07:04:53;102691.00;;;8.60
15079;BMP180;6932;51.438;5.470;2023-02-28T07:07:19;102704.00;;;8.70
15079;BMP180;6932;51.438;5.470;2023-02-28T07:09:44;102711.00;;;8.70
15079;BMP180;6932;51.438;5.470;2023-02-28T07:12:10;102711.00;;;8.80
15079;BMP180;6932;51.438;5.470;2023-02-28T07:14:37;102715.00;;;8.90
15079;BMP180;6932;51.438;5.470;2023-02-28T07:17:03;102713.00;;;9.00
15079;BMP180;6932;51.438;5.470;2023-02-28T07:19:29;102718.00;;;9.10
15079;BMP180;6932;51.438;5.470;2023-02-28T07:21:54;102710.00;;;9.20
15079;BMP180;6932;51.438;5.470;2023-02-28T07:24:21;102717.00;;;9.30
15079;BMP180;6932;51.438;5.470;2023-02-28T07:26:49;102725.00;;;9.40
15079;BMP180;6932;51.438;5.470;2023-02-28T07:29:14;102725.00;;;9.40
15079;BMP180;6932;51.438;5.470;2023-02-28T07:31:40;102726.00;;;9.40
15079;BMP180;6932;51.438;5.470;2023-02-28T07:34:06;102729.00;;;9.40
15079;BMP180;6932;51.438;5.470;2023-02-28T07:36:32;102727.00;;;9.50
15079;BMP180;6932;51.438;5.470;2023-02-28T07:38:58;102718.00;;;9.50
15079;BMP180;6932;51.438;5.470;2023-02-28T07:41:24;102718.00;;;9.60
15079;BMP180;6932;51.438;5.470;2023-02-28T07:43:54;102724.00;;;9.70
15079;BMP180;6932;51.438;5.470;2023-02-28T07:46:21;102732.00;;;9.70
15079;BMP180;6932;51.438;5.470;2023-02-28T07:48:47;102722.00;;;9.80
15079;BMP180;6932;51.438;5.470;2023-02-28T07:51:12;102727.00;;;9.90
15079;BMP180;6932;51.438;5.470;2023-02-28T07:53:38;102723.00;;;10.00
15079;BMP180;6932;51.438;5.470;2023-02-28T07:56:05;102726.00;;;10.10
15079;BMP180;6932;51.438;5.470;2023-02-28T07:58:31;102723.00;;;10.20
15079;BMP180;6932;51.438;5.470;2023-02-28T08:00:57;102736.00;;;10.30
15079;BMP180;6932;51.438;5.470;2023-02-28T08:03:29;102739.00;;;10.40
15079;BMP180;6932;51.438;5.470;2023-02-28T08:05:55;102734.00;;;10.50
15079;BMP180;6932;51.438;5.470;2023-02-28T08:08:21;102739.00;;;10.60
15079;BMP180;6932;51.438;5.470;2023-02-28T08:10:46;102742.00;;;10.70
15079;BMP180;6932;51.438;5.470;2023-02-28T08:13:12;102648.00;;;10.80
15079;BMP180;6932;51.438;5.470;2023-02-28T08:15:40;102649.00;;;10.70
15079;BMP180;6932;51.438;5.470;2023-02-28T08:18:06;102647.00;;;10.50
15079;BMP180;6932;51.438;5.470;2023-02-28T08:20:32;102643.00;;;10.20
15079;BMP180;6932;51.438;5.470;2023-02-28T08:22:57;102652.00;;;10.00
15079;BMP180;6932;51.438;5.470;2023-02-28T08:25:23;102648.00;;;9.90
15079;BMP180;6932;51.438;5.470;2023-02-28T08:27:51;102735.00;;;9.80
15079;BMP180;6932;51.438;5.470;2023-02-28T08:30:17;102727.00;;;9.80
15079;BMP180;6932;51.438;5.470;2023-02-28T08:32:43;102741.00;;;10.00
15079;BMP180;6932;51.438;5.470;2023-02-28T08:35:10;102728.00;;;10.20
15079;BMP180;6932;51.438;5.470;2023-02-28T08:37:36;102737.00;;;10.40
15079;BMP180;6932;51.438;5.470;2023-02-28T08:40:02;102725.00;;;10.60
15079;BMP180;6932;51.438;5.470;2023-02-28T08:42:30;102728.00;;;10.70
15079;BMP180;6932;51.438;5.470;2023-02-28T08:44:55;102728.00;;;10.90
15079;BMP180;6932;51.438;5.470;2023-02-28T08:47:21;102724.00;;;11.00
15079;BMP180;6932;51.438;5.470;2023-02-28T08:49:47;102722.00;;;11.10
15079;BMP180;6932;51.438;5.470;2023-02-28T08:52:13;102726.00;;;11.20
15079;BMP180;6932;51.438;5.470;2023-02-28T08:54:39;102751.00;;;11.30
15079;BMP180;6932;51.438;5.470;2023-02-28T08:57:05;102716.00;;;11.40
15079;BMP180;6932;51.438;5.470;2023-02-28T08:59:31;102717.00;;;11.50
15079;BMP180;6932;51.438;5.470;2023-02-28T09:01:57;102720.00;;;11.60
15079;BMP180;6932;51.438;5.470;2023-02-28T09:04:23;102726.00;;;11.70
15079;BMP180;6932;51.438;5.470;2023-02-28T09:06:50;102724.00;;;11.80
15079;BMP180;6932;51.438;5.470;2023-02-28T09:09:16;102730.00;;;11.80
15079;BMP180;6932;51.438;5.470;2023-02-28T09:11:41;102729.00;;;11.90
15079;BMP180;6932;51.438;5.470;2023-02-28T09:14:08;102729.00;;;12.00
15079;BMP180;6932;51.438;5.470;2023-02-28T09:16:34;102738.00;;;12.10
15079;BMP180;6932;51.438;5.470;2023-02-28T09:19:00;102736.00;;;12.10
15079;BMP180;6932;51.438;5.470;2023-02-28T09:21:27;102724.00;;;12.00
15079;BMP180;6932;51.438;5.470;2023-02-28T09:23:53;102734.00;;;12.00
15079;BMP180;6932;51.438;5.470;2023-02-28T09:26:24;102724.00;;;12.10
15079;BMP180;6932;51.438;5.470;2023-02-28T09:28:52;102724.00;;;12.10
15079;BMP180;6932;51.438;5.470;2023-02-28T09:31:24;102725.00;;;12.20
15079;BMP180;6932;51.438;5.470;2023-02-28T09:33:54;102734.00;;;12.30
15079;BMP180;6932;51.438;5.470;2023-02-28T09:36:20;102724.00;;;12.30
15079;BMP180;6932;51.438;5.470;2023-02-28T09:38:46;102716.00;;;12.30
15079;BMP180;6932;51.438;5.470;2023-02-28T09:41:24;102717.00;;;12.30
15079;BMP180;6932;51.438;5.470;2023-02-28T09:44:02;102727.00;;;12.30
15079;BMP180;6932;51.438;5.470;2023-02-28T09:46:40;102737.00;;;12.30
15079;BMP180;6932;51.438;5.470;2023-02-28T09:49:14;102726.00;;;12.30
15079;BMP180;6932;51.438;5.470;2023-02-28T09:52:01;102731.00;;;12.30
15079;BMP180;6932;51.438;5.470;2023-02-28T09:54:32;102726.00;;;12.30
15079;BMP180;6932;51.438;5.470;2023-02-28T09:57:31;102724.00;;;12.30
15079;BMP180;6932;51.438;5.470;2023-02-28T10:03:01;102714.00;;;12.30
15079;BMP180;6932;51.438;5.470;2023-02-28T10:05:38;102731.00;;;12.30
15079;BMP180;6932;51.438;5.470;2023-02-28T10:08:16;102725.00;;;12.30
15079;BMP180;6932;51.438;5.470;2023-02-28T10:10:55;102731.00;;;12.30
15079;BMP180;6932;51.438;5.470;2023-02-28T10:13:35;102712.00;;;12.30
15079;BMP180;6932;51.438;5.470;2023-02-28T10:16:29;102721.00;;;12.30
15079;BMP180;6932;51.438;5.470;2023-02-28T10:19:20;102719.00;;;12.30
15079;BMP180;6932;51.438;5.470;2023-02-28T10:21:57;102711.00;;;12.30
15079;BMP180;6932;51.438;5.470;2023-02-28T10:24:41;102709.00;;;12.40
15079;BMP180;6932;51.438;5.470;2023-02-28T10:27:24;102711.00;;;12.40
15079;BMP180;6932;51.438;5.470;2023-02-28T10:29:57;102707.00;;;12.40
15079;BMP180;6932;51.438;5.470;2023-02-28T10:32:32;102711.00;;;12.50
15079;BMP180;6932;51.438;5.470;2023-02-28T10:37:33;102701.00;;;12.50
15079;BMP180;6932;51.438;5.470;2023-02-28T10:43:18;102699.00;;;12.60
15079;BMP180;6932;51.438;5.470;2023-02-28T10:46:12;102710.00;;;12.70
15079;BMP180;6932;51.438;5.470;2023-02-28T10:48:45;102705.00;;;12.70
15079;BMP180;6932;51.438;5.470;2023-02-28T10:51:18;102700.00;;;12.70
15079;BMP180;6932;51.438;5.470;2023-02-28T10:53:54;102723.00;;;12.60
15079;BMP180;6932;51.438;5.470;2023-02-28T10:56:23;102704.00;;;12.60
15079;BMP180;6932;51.438;5.470;2023-02-28T10:59:03;102709.00;;;12.50
15079;BMP180;6932;51.438;5.470;2023-02-28T11:01:46;102692.00;;;12.50
15079;BMP180;6932;51.438;5.470;2023-02-28T11:07:21;102690.00;;;12.60
15079;BMP180;6932;51.438;5.470;2023-02-28T11:10:19;102684.00;;;12.60
15079;BMP180;6932;51.438;5.470;2023-02-28T11:12:46;102692.00;;;12.60
15079;BMP180;6932;51.438;5.470;2023-02-28T11:15:28;102686.00;;;12.60
15079;BMP180;6932;51.438;5.470;2023-02-28T11:18:18;102691.00;;;12.60
15079;BMP180;6932;51.438;5.470;2023-02-28T11:20:50;102696.00;;;12.60
15079;BMP180;6932;51.438;5.470;2023-02-28T11:23:18;102684.00;;;12.50
15079;BMP180;6932;51.438;5.470;2023-02-28T11:25:52;102684.00;;;12.50
15079;BMP180;6932;51.438;5.470;2023-02-28T11:28:32;102682.00;;;12.40
15079;BMP180;6932;51.438;5.470;2023-02-28T11:33:54;102670.00;;;12.30
15079;BMP180;6932;51.438;5.470;2023-02-28T11:36:24;102684.00;;;12.30
15079;BMP180;6932;51.438;5.470;2023-02-28T11:38:53;102679.00;;;12.30
15079;BMP180;6932;51.438;5.470;2023-02-28T11:41:35;102688.00;;;12.40
15079;BMP180;6932;51.438;5.470;2023-02-28T11:47:06;102661.00;;;12.50
15079;BMP180;6932;51.438;5.470;2023-02-28T11:52:43;102665.00;;;12.60
15079;BMP180;6932;51.438;5.470;2023-02-28T11:55:39;102661.00;;;12.60
15079;BMP180;6932;51.438;5.470;2023-02-28T12:01:09;102661.00;;;12.60
15079;BMP180;6932;51.438;5.470;2023-02-28T12:03:49;102659.00;;;12.50
15079;BMP180;6932;51.438;5.470;2023-02-28T12:09:43;102667.00;;;12.50
15079;BMP180;6932;51.438;5.470;2023-02-28T12:12:23;102662.00;;;12.50
15079;BMP180;6932;51.438;5.470;2023-02-28T12:20:33;102677.00;;;12.40
15079;BMP180;6932;51.438;5.470;2023-02-28T12:28:51;102640.00;;;12.20
15079;BMP180;6932;51.438;5.470;2023-02-28T12:31:24;102652.00;;;12.20
15079;BMP180;6932;51.438;5.470;2023-02-28T12:34:03;102650.00;;;12.20
15079;BMP180;6932;51.438;5.470;2023-02-28T12:36:30;102635.00;;;12.20
15079;BMP180;6932;51.438;5.470;2023-02-28T12:39:26;102638.00;;;12.10
15079;BMP180;6932;51.438;5.470;2023-02-28T12:42:13;102633.00;;;12.10
15079;BMP180;6932;51.438;5.470;2023-02-28T12:46:07;102618.00;;;12.00
15079;BMP180;6932;51.438;5.470;2023-02-28T12:48:24;102622.00;;;12.00
15079;BMP180;6932;51.438;5.470;2023-02-28T12:50:51;102625.00;;;12.00
15079;BMP180;6932;51.438;5.470;2023-02-28T12:53:31;102629.00;;;12.10
15079;BMP180;6932;51.438;5.470;2023-02-28T12:56:13;102610.00;;;12.10
15079;BMP180;6932;51.438;5.470;2023-02-28T13:05:01;102613.00;;;12.00
15079;BMP180;6932;51.438;5.470;2023-02-28T13:10:06;102615.00;;;12.00
15079;BMP180;6932;51.438;5.470;2023-02-28T13:12:34;102601.00;;;12.00
15079;BMP180;6932;51.438;5.470;2023-02-28T13:15:47;102600.00;;;12.00
15079;BMP180;6932;51.438;5.470;2023-02-28T13:17:58;102608.00;;;12.00
15079;BMP180;6932;51.438;5.470;2023-02-28T13:20:37;102596.00;;;12.00
15079;BMP180;6932;51.438;5.470;2023-02-28T13:23:39;102595.00;;;12.00
15079;BMP180;6932;51.438;5.470;2023-02-28T13:26:05;102607.00;;;12.00
15079;BMP180;6932;51.438;5.470;2023-02-28T13:31:16;102589.00;;;11.90
15079;BMP180;6932;51.438;5.470;2023-02-28T13:41:56;102579.00;;;11.90
15079;BMP180;6932;51.438;5.470;2023-02-28T13:44:23;102573.00;;;11.90
15079;BMP180;6932;51.438;5.470;2023-02-28T13:58:43;102561.00;;;12.00
15079;BMP180;6932;51.438;5.470;2023-02-28T14:06:29;102560.00;;;12.00
15079;BMP180;6932;51.438;5.470;2023-02-28T14:09:02;102572.00;;;12.00
15079;BMP180;6932;51.438;5.470;2023-02-28T14:11:37;102572.00;;;12.00
15079;BMP180;6932;51.438;5.470;2023-02-28T14:14:05;102555.00;;;12.00
15079;BMP180;6932;51.438;5.470;2023-02-28T14:16:44;102567.00;;;12.00
15079;BMP180;6932;51.438;5.470;2023-02-28T14:19:25;102566.00;;;12.00
15079;BMP180;6932;51.438;5.470;2023-02-28T14:33:11;102564.00;;;12.00
15079;BMP180;6932;51.438;5.470;2023-02-28T14:38:45;102560.00;;;11.90
15079;BMP180;6932;51.438;5.470;2023-02-28T14:41:36;102552.00;;;11.90
15079;BMP180;6932;51.438;5.470;2023-02-28T14:44:22;102555.00;;;11.90
15079;BMP180;6932;51.438;5.470;2023-02-28T14:46:52;102557.00;;;11.90
15079;BMP180;6932;51.438;5.470;2023-02-28T14:49:42;102561.00;;;11.90
15079;BMP180;6932;51.438;5.470;2023-02-28T14:52:27;102555.00;;;11.90
15079;BMP180;6932;51.438;5.470;2023-02-28T14:54:59;102553.00;;;11.80
15079;BMP180;6932;51.438;5.470;2023-02-28T14:57:32;102543.00;;;11.80
15079;BMP180;6932;51.438;5.470;2023-02-28T15:00:18;102560.00;;;11.80
15079;BMP180;6932;51.438;5.470;2023-02-28T15:02:46;102546.00;;;11.80
15079;BMP180;6932;51.438;5.470;2023-02-28T15:07:48;102542.00;;;11.80
15079;BMP180;6932;51.438;5.470;2023-02-28T15:13:00;102540.00;;;11.70
15079;BMP180;6932;51.438;5.470;2023-02-28T15:15:54;102555.00;;;11.70
15079;BMP180;6932;51.438;5.470;2023-02-28T15:18:32;102539.00;;;11.70
15079;BMP180;6932;51.438;5.470;2023-02-28T15:21:06;102541.00;;;11.70
15079;BMP180;6932;51.438;5.470;2023-02-28T15:23:36;102544.00;;;11.80
15079;BMP180;6932;51.438;5.470;2023-02-28T15:26:03;102550.00;;;11.80
15079;BMP180;6932;51.438;5.470;2023-02-28T15:28:29;102549.00;;;11.80
15079;BMP180;6932;51.438;5.470;2023-02-28T15:31:03;102559.00;;;11.80
15079;BMP180;6932;51.438;5.470;2023-02-28T15:33:54;102547.00;;;11.80
15079;BMP180;6932;51.438;5.470;2023-02-28T15:36:24;102547.00;;;11.80
15079;BMP180;6932;51.438;5.470;2023-02-28T15:38:53;102555.00;;;11.80
15079;BMP180;6932;51.438;5.470;2023-02-28T15:41:36;102560.00;;;11.80
15079;BMP180;6932;51.438;5.470;2023-02-28T15:44:33;102555.00;;;11.70
15079;BMP180;6932;51.438;5.470;2023-02-28T15:47:20;102546.00;;;11.70
15079;BMP180;6932;51.438;5.470;2023-02-28T15:49:56;102545.00;;;11.70
15079;BMP180;6932;51.438;5.470;2023-02-28T15:52:44;102556.00;;;11.70
15079;BMP180;6932;51.438;5.470;2023-02-28T15:55:21;102559.00;;;11.70
15079;BMP180;6932;51.438;5.470;2023-02-28T15:57:56;102541.00;;;11.60
15079;BMP180;6932;51.438;5.470;2023-02-28T16:00:28;102545.00;;;11.60
15079;BMP180;6932;51.438;5.470;2023-02-28T16:02:54;102542.00;;;11.60
15079;BMP180;6932;51.438;5.470;2023-02-28T16:05:30;102549.00;;;11.60
15079;BMP180;6932;51.438;5.470;2023-02-28T16:08:15;102545.00;;;11.60
15079;BMP180;6932;51.438;5.470;2023-02-28T16:10:41;102546.00;;;11.60
15079;BMP180;6932;51.438;5.470;2023-02-28T16:13:11;102561.00;;;11.60
15079;BMP180;6932;51.438;5.470;2023-02-28T16:15:42;102543.00;;;11.60
15079;BMP180;6932;51.438;5.470;2023-02-28T16:18:12;102546.00;;;11.60
15079;BMP180;6932;51.438;5.470;2023-02-28T16:21:05;102546.00;;;11.60
15079;BMP180;6932;51.438;5.470;2023-02-28T16:23:31;102544.00;;;11.50
15079;BMP180;6932;51.438;5.470;2023-02-28T16:25:57;102556.00;;;11.60
15079;BMP180;6932;51.438;5.470;2023-02-28T16:28:36;102554.00;;;11.60
15079;BMP180;6932;51.438;5.470;2023-02-28T16:31:06;102552.00;;;11.50
15079;BMP180;6932;51.438;5.470;2023-02-28T16:33:33;102550.00;;;11.60
15079;BMP180;6932;51.438;5.470;2023-02-28T16:36:01;102553.00;;;11.60
15079;BMP180;6932;51.438;5.470;2023-02-28T16:38:26;102548.00;;;11.50
15079;BMP180;6932;51.438;5.470;2023-02-28T16:40:58;102557.00;;;11.50
15079;BMP180;6932;51.438;5.470;2023-02-28T16:43:26;102560.00;;;11.50
15079;BMP180;6932;51.438;5.470;2023-02-28T16:45:57;102563.00;;;11.50
15079;BMP180;6932;51.438;5.470;2023-02-28T16:48:24;102567.00;;;11.50
15079;BMP180;6932;51.438;5.470;2023-02-28T16:50:50;102568.00;;;11.50